Etusivu
METAR-TAF:

METAR-TAF

Lentoasemat :

Lanzhou, Kiina

Leveyspiiri: 36-02N, Pituuspiiri: 103-52E, korkeus merenpinnasta: 1518 m

Tämänhetkinen sää

Tämä raportti tehtiin 40 minuuttia sitten, kello 07.00 UTC
Tuuli 6 kn idästä/kaakosta puuskistuen 16 kn:hen, vaihdellen idän/koillisen ja etelän välillä
Lämpötila 4°C
Kosteus 38%
Ilmanpaine 1023 hPa
Näkyvyys 10 km tai enemmän
ei pilviä alle 1500 m:ssä eikä cumulonimbus-pilviä

METAR: ZLLL 020700Z 12003G08MPS 070V170 CAVOK 04/M09 Q1023 NOSIG

Aika: 15:40 (07:40 UTC)

Sääennuste

Tämä raportti tehtiin 4 tuntia ja 32 minuuttia sitten, kello 03.08 UTC
Ennuste voimassa 02. päivästä klo 06 UTC - 03. päivään klo 06 UTC
Tuuli 8 kn idästä/koillisesta
Näkyvyys: 6000 m
Hajanaisia pilviä 4000 ft:n korkeudessa
Tulossa
02. päivästä klo 23 UTC - 02. päivään klo 24 UTC
Näkyvyys: 4000 m
heikkoa sadetta

TAF: ZLLL 020308Z 0206/0306 06004MPS 6000 SCT040 TX04/0208Z TNM02/0222Z BECMG 0223/0224 4000 -RA

Säähavainnot ja -ennusteet yli 4000 lentoasemalta (METAR- ja TAF-raportit).

Käytössä olevat sääasemat on merkitty karttaan keltaisilla ja punaisilla pisteillä.

Aseta hiiri pisteen päälle nähdäksesi sääaseman nimen.

Klikkaa sitten nähdäksesi säähavainnot ja -ennusteet.

Kartan vaihtaminen: klikkaa mustalla rastilla varustettuja vihreitä pisteitä, niin voit zoomata sisään; viivalla varustettua vihreää pistettä, niin voit zoomata ulos tai vihreitä nuolia, niin pääset viereisille kartoille.


METAR-TAF: